sensor_id;sensor_type;location;lat;lon;timestamp;temperature;humidity
43185;DHT22;28803;52.308;19.096;2023-02-24T00:01:58;5.00;99.90
43185;DHT22;28803;52.308;19.096;2023-02-24T00:04:32;5.00;99.90
43185;DHT22;28803;52.308;19.096;2023-02-24T00:06:59;5.10;99.90
43185;DHT22;28803;52.308;19.096;2023-02-24T00:09:30;5.20;99.90
43185;DHT22;28803;52.308;19.096;2023-02-24T00:12:03;5.20;99.90
43185;DHT22;28803;52.308;19.096;2023-02-24T00:14:33;5.20;99.90
43185;DHT22;28803;52.308;19.096;2023-02-24T00:17:00;5.30;99.90
43185;DHT22;28803;52.308;19.096;2023-02-24T00:19:29;5.30;99.90
43185;DHT22;28803;52.308;19.096;2023-02-24T00:22:04;5.30;99.90
43185;DHT22;28803;52.308;19.096;2023-02-24T00:24:34;5.40;99.90
43185;DHT22;28803;52.308;19.096;2023-02-24T00:27:03;5.40;99.90
43185;DHT22;28803;52.308;19.096;2023-02-24T00:29:34;5.40;99.90
43185;DHT22;28803;52.308;19.096;2023-02-24T00:32:06;5.40;99.90
43185;DHT22;28803;52.308;19.096;2023-02-24T00:34:39;5.40;99.90
43185;DHT22;28803;52.308;19.096;2023-02-24T00:37:07;5.40;99.90
43185;DHT22;28803;52.308;19.096;2023-02-24T00:39:35;5.40;99.90
43185;DHT22;28803;52.308;19.096;2023-02-24T00:42:04;5.40;99.90
43185;DHT22;28803;52.308;19.096;2023-02-24T00:44:33;5.40;99.90
43185;DHT22;28803;52.308;19.096;2023-02-24T00:47:00;5.30;99.90
43185;DHT22;28803;52.308;19.096;2023-02-24T00:49:29;5.20;99.90
43185;DHT22;28803;52.308;19.096;2023-02-24T00:51:57;5.20;99.90
43185;DHT22;28803;52.308;19.096;2023-02-24T00:54:24;5.10;99.90
43185;DHT22;28803;52.308;19.096;2023-02-24T00:56:54;5.10;99.90
43185;DHT22;28803;52.308;19.096;2023-02-24T00:59:22;5.10;99.90
43185;DHT22;28803;52.308;19.096;2023-02-24T01:01:50;5.00;99.90
43185;DHT22;28803;52.308;19.096;2023-02-24T01:04:18;5.00;99.90
43185;DHT22;28803;52.308;19.096;2023-02-24T01:06:51;5.00;99.90
43185;DHT22;28803;52.308;19.096;2023-02-24T01:09:19;5.00;99.90
43185;DHT22;28803;52.308;19.096;2023-02-24T01:11:48;5.00;99.90
43185;DHT22;28803;52.308;19.096;2023-02-24T01:14:34;5.00;99.90
43185;DHT22;28803;52.308;19.096;2023-02-24T01:17:03;5.00;99.90
43185;DHT22;28803;52.308;19.096;2023-02-24T01:19:32;5.00;99.90
43185;DHT22;28803;52.308;19.096;2023-02-24T01:22:03;5.00;99.90
43185;DHT22;28803;52.308;19.096;2023-02-24T01:24:37;5.00;99.90
43185;DHT22;28803;52.308;19.096;2023-02-24T01:27:05;5.00;99.90
43185;DHT22;28803;52.308;19.096;2023-02-24T01:29:33;5.00;99.90
43185;DHT22;28803;52.308;19.096;2023-02-24T01:32:13;5.00;99.90
43185;DHT22;28803;52.308;19.096;2023-02-24T01:34:44;5.00;99.90
43185;DHT22;28803;52.308;19.096;2023-02-24T01:37:11;5.00;99.90
43185;DHT22;28803;52.308;19.096;2023-02-24T01:39:43;5.10;99.90
43185;DHT22;28803;52.308;19.096;2023-02-24T01:42:15;5.10;99.90
43185;DHT22;28803;52.308;19.096;2023-02-24T01:47:18;5.00;99.90
43185;DHT22;28803;52.308;19.096;2023-02-24T01:49:51;5.00;99.90
43185;DHT22;28803;52.308;19.096;2023-02-24T01:52:25;5.00;99.90
43185;DHT22;28803;52.308;19.096;2023-02-24T01:57:47;5.00;99.90
43185;DHT22;28803;52.308;19.096;2023-02-24T02:00:16;5.00;99.90
43185;DHT22;28803;52.308;19.096;2023-02-24T02:03:12;5.10;99.90
43185;DHT22;28803;52.308;19.096;2023-02-24T02:05:41;5.10;99.90
43185;DHT22;28803;52.308;19.096;2023-02-24T02:08:09;5.00;99.90
43185;DHT22;28803;52.308;19.096;2023-02-24T02:10:38;5.10;99.90
43185;DHT22;28803;52.308;19.096;2023-02-24T02:13:06;5.10;99.90
43185;DHT22;28803;52.308;19.096;2023-02-24T02:15:42;5.10;99.90
43185;DHT22;28803;52.308;19.096;2023-02-24T02:18:30;5.20;99.90
43185;DHT22;28803;52.308;19.096;2023-02-24T02:24:30;5.20;99.90
43185;DHT22;28803;52.308;19.096;2023-02-24T02:41:25;5.30;99.90
43185;DHT22;28803;52.308;19.096;2023-02-24T02:46:40;5.30;99.90
43185;DHT22;28803;52.308;19.096;2023-02-24T02:49:21;5.30;99.90
43185;DHT22;28803;52.308;19.096;2023-02-24T02:51:52;5.30;99.90
43185;DHT22;28803;52.308;19.096;2023-02-24T02:54:37;5.30;99.90
43185;DHT22;28803;52.308;19.096;2023-02-24T02:57:13;5.40;99.90
43185;DHT22;28803;52.308;19.096;2023-02-24T03:00:09;5.40;99.90
43185;DHT22;28803;52.308;19.096;2023-02-24T03:02:50;5.40;99.90
43185;DHT22;28803;52.308;19.096;2023-02-24T03:05:21;5.40;99.90
43185;DHT22;28803;52.308;19.096;2023-02-24T03:07:57;5.40;99.90
43185;DHT22;28803;52.308;19.096;2023-02-24T03:10:28;5.40;99.90
43185;DHT22;28803;52.308;19.096;2023-02-24T03:13:01;5.40;99.90
43185;DHT22;28803;52.308;19.096;2023-02-24T03:15:31;5.50;99.90
43185;DHT22;28803;52.308;19.096;2023-02-24T03:18:05;5.50;99.90
43185;DHT22;28803;52.308;19.096;2023-02-24T03:20:47;5.50;99.90
43185;DHT22;28803;52.308;19.096;2023-02-24T03:23:18;5.50;99.90
43185;DHT22;28803;52.308;19.096;2023-02-24T03:25:57;5.50;99.90
43185;DHT22;28803;52.308;19.096;2023-02-24T03:28:35;5.50;99.90
43185;DHT22;28803;52.308;19.096;2023-02-24T03:31:20;5.50;99.90
43185;DHT22;28803;52.308;19.096;2023-02-24T03:34:05;5.50;99.90
43185;DHT22;28803;52.308;19.096;2023-02-24T03:36:33;5.50;99.90
43185;DHT22;28803;52.308;19.096;2023-02-24T03:39:01;5.50;99.90
43185;DHT22;28803;52.308;19.096;2023-02-24T03:41:38;5.50;99.90
43185;DHT22;28803;52.308;19.096;2023-02-24T03:44:09;5.50;99.90
43185;DHT22;28803;52.308;19.096;2023-02-24T03:46:37;5.50;99.90
43185;DHT22;28803;52.308;19.096;2023-02-24T03:49:12;5.60;99.90
43185;DHT22;28803;52.308;19.096;2023-02-24T03:51:40;5.60;99.90
43185;DHT22;28803;52.308;19.096;2023-02-24T04:00:29;5.60;99.90
43185;DHT22;28803;52.308;19.096;2023-02-24T04:09:19;5.70;99.90
43185;DHT22;28803;52.308;19.096;2023-02-24T04:11:54;5.80;99.90
43185;DHT22;28803;52.308;19.096;2023-02-24T04:17:27;5.80;99.90
43185;DHT22;28803;52.308;19.096;2023-02-24T04:19:59;5.80;99.90
43185;DHT22;28803;52.308;19.096;2023-02-24T04:22:35;5.90;99.90
43185;DHT22;28803;52.308;19.096;2023-02-24T04:25:03;5.80;99.90
43185;DHT22;28803;52.308;19.096;2023-02-24T04:27:32;5.80;99.90
43185;DHT22;28803;52.308;19.096;2023-02-24T04:30:00;5.90;99.90
43185;DHT22;28803;52.308;19.096;2023-02-24T04:32:30;5.90;99.90
43185;DHT22;28803;52.308;19.096;2023-02-24T04:35:12;5.90;99.90
43185;DHT22;28803;52.308;19.096;2023-02-24T04:37:39;5.90;99.90
43185;DHT22;28803;52.308;19.096;2023-02-24T04:40:13;5.90;99.90
43185;DHT22;28803;52.308;19.096;2023-02-24T04:42:44;5.90;99.90
43185;DHT22;28803;52.308;19.096;2023-02-24T04:45:20;5.90;99.90
43185;DHT22;28803;52.308;19.096;2023-02-24T04:47:50;5.90;99.90
43185;DHT22;28803;52.308;19.096;2023-02-24T04:50:20;5.90;99.90
43185;DHT22;28803;52.308;19.096;2023-02-24T04:53:01;5.90;99.90
43185;DHT22;28803;52.308;19.096;2023-02-24T04:55:30;5.90;99.90
43185;DHT22;28803;52.308;19.096;2023-02-24T04:58:00;5.90;99.90
43185;DHT22;28803;52.308;19.096;2023-02-24T05:00:28;6.00;99.90
43185;DHT22;28803;52.308;19.096;2023-02-24T05:03:00;5.90;99.90
43185;DHT22;28803;52.308;19.096;2023-02-24T05:05:28;5.90;99.90
43185;DHT22;28803;52.308;19.096;2023-02-24T05:08:06;6.00;99.90
43185;DHT22;28803;52.308;19.096;2023-02-24T05:10:41;5.90;99.90
43185;DHT22;28803;52.308;19.096;2023-02-24T05:13:13;5.90;99.90
43185;DHT22;28803;52.308;19.096;2023-02-24T05:15:42;5.90;99.90
43185;DHT22;28803;52.308;19.096;2023-02-24T05:18:12;5.90;99.90
43185;DHT22;28803;52.308;19.096;2023-02-24T05:20:43;5.90;99.90
43185;DHT22;28803;52.308;19.096;2023-02-24T05:23:41;5.80;99.90
43185;DHT22;28803;52.308;19.096;2023-02-24T05:26:17;5.80;99.90
43185;DHT22;28803;52.308;19.096;2023-02-24T05:28:46;5.80;99.90
43185;DHT22;28803;52.308;19.096;2023-02-24T05:31:23;5.80;99.90
43185;DHT22;28803;52.308;19.096;2023-02-24T05:33:57;5.80;99.90
43185;DHT22;28803;52.308;19.096;2023-02-24T05:36:26;5.80;99.90
43185;DHT22;28803;52.308;19.096;2023-02-24T05:38:55;5.80;99.90
43185;DHT22;28803;52.308;19.096;2023-02-24T05:41:34;5.80;99.90
43185;DHT22;28803;52.308;19.096;2023-02-24T05:44:06;5.80;99.90
43185;DHT22;28803;52.308;19.096;2023-02-24T05:46:39;5.90;99.90
43185;DHT22;28803;52.308;19.096;2023-02-24T05:49:11;5.80;99.90
43185;DHT22;28803;52.308;19.096;2023-02-24T05:51:40;5.90;99.90
43185;DHT22;28803;52.308;19.096;2023-02-24T05:54:32;5.80;99.90
43185;DHT22;28803;52.308;19.096;2023-02-24T05:57:02;5.80;99.90
43185;DHT22;28803;52.308;19.096;2023-02-24T05:59:30;5.80;99.90
43185;DHT22;28803;52.308;19.096;2023-02-24T06:02:02;5.80;99.90
43185;DHT22;28803;52.308;19.096;2023-02-24T06:04:36;5.90;99.90
43185;DHT22;28803;52.308;19.096;2023-02-24T06:07:14;5.80;99.90
43185;DHT22;28803;52.308;19.096;2023-02-24T06:09:50;5.80;99.90
43185;DHT22;28803;52.308;19.096;2023-02-24T06:12:21;5.80;99.90
43185;DHT22;28803;52.308;19.096;2023-02-24T06:14:49;5.80;99.90
43185;DHT22;28803;52.308;19.096;2023-02-24T06:17:17;5.80;99.90
43185;DHT22;28803;52.308;19.096;2023-02-24T06:19:45;5.80;99.90
43185;DHT22;28803;52.308;19.096;2023-02-24T06:22:17;5.80;99.90
43185;DHT22;28803;52.308;19.096;2023-02-24T06:24:48;5.70;99.90
43185;DHT22;28803;52.308;19.096;2023-02-24T06:27:18;5.70;99.90
43185;DHT22;28803;52.308;19.096;2023-02-24T06:29:47;5.70;99.90
43185;DHT22;28803;52.308;19.096;2023-02-24T06:32:18;5.70;99.90
43185;DHT22;28803;52.308;19.096;2023-02-24T06:34:46;5.70;99.90
43185;DHT22;28803;52.308;19.096;2023-02-24T06:37:14;5.60;99.90
43185;DHT22;28803;52.308;19.096;2023-02-24T06:39:41;5.60;99.90
43185;DHT22;28803;52.308;19.096;2023-02-24T06:42:10;5.60;99.90
43185;DHT22;28803;52.308;19.096;2023-02-24T06:44:39;5.60;99.90
43185;DHT22;28803;52.308;19.096;2023-02-24T06:47:09;5.50;99.90
43185;DHT22;28803;52.308;19.096;2023-02-24T06:49:37;5.50;99.90
43185;DHT22;28803;52.308;19.096;2023-02-24T06:52:04;5.50;99.90
43185;DHT22;28803;52.308;19.096;2023-02-24T06:54:31;5.40;99.90
43185;DHT22;28803;52.308;19.096;2023-02-24T06:57:02;5.40;99.90
43185;DHT22;28803;52.308;19.096;2023-02-24T06:59:30;5.40;99.90
43185;DHT22;28803;52.308;19.096;2023-02-24T07:01:59;5.40;99.90
43185;DHT22;28803;52.308;19.096;2023-02-24T07:04:29;5.50;99.90
43185;DHT22;28803;52.308;19.096;2023-02-24T07:06:58;5.50;99.90
43185;DHT22;28803;52.308;19.096;2023-02-24T07:09:30;5.50;99.90
43185;DHT22;28803;52.308;19.096;2023-02-24T07:11:58;5.50;99.90
43185;DHT22;28803;52.308;19.096;2023-02-24T07:14:28;5.50;99.90
43185;DHT22;28803;52.308;19.096;2023-02-24T07:16:59;5.50;99.90
43185;DHT22;28803;52.308;19.096;2023-02-24T07:19:29;5.50;99.90
43185;DHT22;28803;52.308;19.096;2023-02-24T07:22:00;5.50;99.90
43185;DHT22;28803;52.308;19.096;2023-02-24T07:24:32;5.50;99.90
43185;DHT22;28803;52.308;19.096;2023-02-24T07:27:09;5.50;99.90
43185;DHT22;28803;52.308;19.096;2023-02-24T07:29:37;5.50;99.90
43185;DHT22;28803;52.308;19.096;2023-02-24T07:32:07;5.50;99.90
43185;DHT22;28803;52.308;19.096;2023-02-24T07:34:35;5.50;99.90
43185;DHT22;28803;52.308;19.096;2023-02-24T07:37:08;5.50;99.90
43185;DHT22;28803;52.308;19.096;2023-02-24T07:39:37;5.50;99.90
43185;DHT22;28803;52.308;19.096;2023-02-24T07:42:07;5.50;99.90
43185;DHT22;28803;52.308;19.096;2023-02-24T07:44:35;5.50;99.90
43185;DHT22;28803;52.308;19.096;2023-02-24T07:47:02;5.60;99.90
43185;DHT22;28803;52.308;19.096;2023-02-24T07:49:34;5.70;99.90
43185;DHT22;28803;52.308;19.096;2023-02-24T07:52:02;5.70;99.90
43185;DHT22;28803;52.308;19.096;2023-02-24T07:54:30;5.70;99.90
43185;DHT22;28803;52.308;19.096;2023-02-24T07:56:58;5.70;99.90
43185;DHT22;28803;52.308;19.096;2023-02-24T07:59:27;5.70;99.90
43185;DHT22;28803;52.308;19.096;2023-02-24T08:01:55;5.70;99.90
43185;DHT22;28803;52.308;19.096;2023-02-24T08:04:28;5.70;99.90
43185;DHT22;28803;52.308;19.096;2023-02-24T08:06:56;5.70;99.90
43185;DHT22;28803;52.308;19.096;2023-02-24T08:09:27;5.70;99.90
43185;DHT22;28803;52.308;19.096;2023-02-24T08:12:32;5.80;99.90
43185;DHT22;28803;52.308;19.096;2023-02-24T08:15:02;5.70;99.90
43185;DHT22;28803;52.308;19.096;2023-02-24T08:17:43;5.80;99.90
43185;DHT22;28803;52.308;19.096;2023-02-24T08:20:11;5.80;99.90
43185;DHT22;28803;52.308;19.096;2023-02-24T08:22:39;5.80;99.90
43185;DHT22;28803;52.308;19.096;2023-02-24T08:25:11;5.90;99.90
43185;DHT22;28803;52.308;19.096;2023-02-24T08:27:48;6.00;99.90
43185;DHT22;28803;52.308;19.096;2023-02-24T08:30:37;6.00;99.90
43185;DHT22;28803;52.308;19.096;2023-02-24T08:33:07;6.00;99.90
43185;DHT22;28803;52.308;19.096;2023-02-24T08:35:37;5.90;99.90
43185;DHT22;28803;52.308;19.096;2023-02-24T08:38:23;6.00;99.90
43185;DHT22;28803;52.308;19.096;2023-02-24T08:40:53;6.00;99.90
43185;DHT22;28803;52.308;19.096;2023-02-24T08:43:31;6.00;99.90
43185;DHT22;28803;52.308;19.096;2023-02-24T08:48:42;6.00;99.90
43185;DHT22;28803;52.308;19.096;2023-02-24T08:51:21;6.00;99.90
43185;DHT22;28803;52.308;19.096;2023-02-24T08:53:52;5.90;99.90
43185;DHT22;28803;52.308;19.096;2023-02-24T08:56:23;5.90;99.90
43185;DHT22;28803;52.308;19.096;2023-02-24T08:59:02;5.80;99.90
43185;DHT22;28803;52.308;19.096;2023-02-24T09:01:36;5.80;99.90
43185;DHT22;28803;52.308;19.096;2023-02-24T09:04:12;5.90;99.90
43185;DHT22;28803;52.308;19.096;2023-02-24T09:06:49;5.90;99.90
43185;DHT22;28803;52.308;19.096;2023-02-24T09:09:21;6.00;99.90
43185;DHT22;28803;52.308;19.096;2023-02-24T09:11:57;6.10;99.90
43185;DHT22;28803;52.308;19.096;2023-02-24T09:14:29;6.10;99.90
43185;DHT22;28803;52.308;19.096;2023-02-24T09:17:04;6.20;99.90
43185;DHT22;28803;52.308;19.096;2023-02-24T09:22:31;6.20;99.90
43185;DHT22;28803;52.308;19.096;2023-02-24T09:25:08;6.20;99.90
43185;DHT22;28803;52.308;19.096;2023-02-24T09:30:25;6.20;99.90
43185;DHT22;28803;52.308;19.096;2023-02-24T09:33:14;6.20;99.90
43185;DHT22;28803;52.308;19.096;2023-02-24T09:35:54;6.20;99.90
43185;DHT22;28803;52.308;19.096;2023-02-24T09:38:41;6.20;99.90
43185;DHT22;28803;52.308;19.096;2023-02-24T09:44:34;6.10;99.90
43185;DHT22;28803;52.308;19.096;2023-02-24T09:49:51;6.30;99.90
43185;DHT22;28803;52.308;19.096;2023-02-24T09:52:29;6.30;99.90
43185;DHT22;28803;52.308;19.096;2023-02-24T09:58:06;6.40;99.90
43185;DHT22;28803;52.308;19.096;2023-02-24T10:06:59;6.60;99.90
43185;DHT22;28803;52.308;19.096;2023-02-24T10:12:22;6.70;99.90
43185;DHT22;28803;52.308;19.096;2023-02-24T10:14:55;6.80;99.90
43185;DHT22;28803;52.308;19.096;2023-02-24T10:17:55;6.80;99.90
43185;DHT22;28803;52.308;19.096;2023-02-24T10:20:25;6.90;99.90
43185;DHT22;28803;52.308;19.096;2023-02-24T10:26:19;7.10;99.90
43185;DHT22;28803;52.308;19.096;2023-02-24T10:31:49;7.00;99.90
43185;DHT22;28803;52.308;19.096;2023-02-24T10:34:26;6.90;99.90
43185;DHT22;28803;52.308;19.096;2023-02-24T10:37:09;6.90;99.90
43185;DHT22;28803;52.308;19.096;2023-02-24T10:39:59;7.00;99.90
43185;DHT22;28803;52.308;19.096;2023-02-24T10:42:38;7.10;99.90
43185;DHT22;28803;52.308;19.096;2023-02-24T10:45:23;7.10;99.90
43185;DHT22;28803;52.308;19.096;2023-02-24T10:47:53;7.00;99.90
43185;DHT22;28803;52.308;19.096;2023-02-24T10:50:40;7.00;99.90
43185;DHT22;28803;52.308;19.096;2023-02-24T10:53:26;7.00;99.90
43185;DHT22;28803;52.308;19.096;2023-02-24T10:56:14;7.00;99.90
43185;DHT22;28803;52.308;19.096;2023-02-24T10:59:10;7.20;99.90
43185;DHT22;28803;52.308;19.096;2023-02-24T11:02:34;7.30;99.90
43185;DHT22;28803;52.308;19.096;2023-02-24T11:05:23;7.50;99.90
43185;DHT22;28803;52.308;19.096;2023-02-24T11:10:39;7.70;99.90
43185;DHT22;28803;52.308;19.096;2023-02-24T11:13:25;7.60;99.90
43185;DHT22;28803;52.308;19.096;2023-02-24T11:16:11;7.20;99.90
43185;DHT22;28803;52.308;19.096;2023-02-24T11:18:57;7.00;99.90
43185;DHT22;28803;52.308;19.096;2023-02-24T11:21:25;6.80;99.90
43185;DHT22;28803;52.308;19.096;2023-02-24T11:23:56;6.70;99.90
43185;DHT22;28803;52.308;19.096;2023-02-24T11:26:34;6.70;99.90
43185;DHT22;28803;52.308;19.096;2023-02-24T11:29:15;6.80;99.90
43185;DHT22;28803;52.308;19.096;2023-02-24T11:37:25;6.80;99.90
43185;DHT22;28803;52.308;19.096;2023-02-24T11:40:47;6.70;99.90
43185;DHT22;28803;52.308;19.096;2023-02-24T11:43:11;6.60;99.90
43185;DHT22;28803;52.308;19.096;2023-02-24T11:51:09;6.50;99.90
43185;DHT22;28803;52.308;19.096;2023-02-24T11:54:00;6.60;99.90
43185;DHT22;28803;52.308;19.096;2023-02-24T11:56:33;6.70;99.90
43185;DHT22;28803;52.308;19.096;2023-02-24T11:59:17;6.80;99.90
43185;DHT22;28803;52.308;19.096;2023-02-24T12:02:21;6.80;99.90
43185;DHT22;28803;52.308;19.096;2023-02-24T12:05:14;7.10;99.90
43185;DHT22;28803;52.308;19.096;2023-02-24T12:07:58;7.20;99.90
43185;DHT22;28803;52.308;19.096;2023-02-24T12:10:33;7.30;99.90
43185;DHT22;28803;52.308;19.096;2023-02-24T12:13:20;7.30;99.90
43185;DHT22;28803;52.308;19.096;2023-02-24T12:16:06;7.20;99.90
43185;DHT22;28803;52.308;19.096;2023-02-24T12:18:45;7.30;99.90
43185;DHT22;28803;52.308;19.096;2023-02-24T12:21:25;7.30;99.90
43185;DHT22;28803;52.308;19.096;2023-02-24T12:23:57;7.50;99.90
43185;DHT22;28803;52.308;19.096;2023-02-24T12:35:14;6.90;99.90
43185;DHT22;28803;52.308;19.096;2023-02-24T12:57:22;6.30;99.90
43185;DHT22;28803;52.308;19.096;2023-02-24T12:59:53;6.20;99.90
43185;DHT22;28803;52.308;19.096;2023-02-24T13:05:23;6.10;99.90
43185;DHT22;28803;52.308;19.096;2023-02-24T13:13:56;5.90;99.90
43185;DHT22;28803;52.308;19.096;2023-02-24T13:16:31;5.90;99.90
43185;DHT22;28803;52.308;19.096;2023-02-24T13:19:27;5.70;99.90
43185;DHT22;28803;52.308;19.096;2023-02-24T13:24:55;5.70;99.90
43185;DHT22;28803;52.308;19.096;2023-02-24T13:27:25;5.60;99.90
43185;DHT22;28803;52.308;19.096;2023-02-24T13:30:22;5.70;99.90
43185;DHT22;28803;52.308;19.096;2023-02-24T13:32:56;5.70;99.90
43185;DHT22;28803;52.308;19.096;2023-02-24T13:37:53;5.80;99.90
43185;DHT22;28803;52.308;19.096;2023-02-24T13:40:23;5.70;99.90
43185;DHT22;28803;52.308;19.096;2023-02-24T13:42:59;5.60;99.90
43185;DHT22;28803;52.308;19.096;2023-02-24T13:45:33;5.40;99.90
43185;DHT22;28803;52.308;19.096;2023-02-24T14:04:52;4.70;99.90
43185;DHT22;28803;52.308;19.096;2023-02-24T14:07:28;4.80;99.90
43185;DHT22;28803;52.308;19.096;2023-02-24T14:10:04;4.90;99.90
43185;DHT22;28803;52.308;19.096;2023-02-24T14:12:41;4.90;99.90
43185;DHT22;28803;52.308;19.096;2023-02-24T14:15:16;4.80;99.90
43185;DHT22;28803;52.308;19.096;2023-02-24T14:18:03;4.90;99.90
43185;DHT22;28803;52.308;19.096;2023-02-24T14:20:33;5.00;99.90
43185;DHT22;28803;52.308;19.096;2023-02-24T14:23:00;5.10;99.90
43185;DHT22;28803;52.308;19.096;2023-02-24T14:25:32;5.10;99.90
43185;DHT22;28803;52.308;19.096;2023-02-24T14:28:01;5.10;99.90
43185;DHT22;28803;52.308;19.096;2023-02-24T14:30:35;5.10;99.90
43185;DHT22;28803;52.308;19.096;2023-02-24T14:33:06;5.00;99.90
43185;DHT22;28803;52.308;19.096;2023-02-24T14:35:45;5.00;99.90
43185;DHT22;28803;52.308;19.096;2023-02-24T14:40:58;4.80;99.90
43185;DHT22;28803;52.308;19.096;2023-02-24T14:43:26;4.80;99.90
43185;DHT22;28803;52.308;19.096;2023-02-24T14:45:53;4.70;99.90
43185;DHT22;28803;52.308;19.096;2023-02-24T14:48:29;4.70;99.90
43185;DHT22;28803;52.308;19.096;2023-02-24T14:51:32;4.60;99.90
43185;DHT22;28803;52.308;19.096;2023-02-24T14:54:06;4.60;99.90
43185;DHT22;28803;52.308;19.096;2023-02-24T14:56:37;4.60;99.90
43185;DHT22;28803;52.308;19.096;2023-02-24T14:59:11;4.70;99.90
43185;DHT22;28803;52.308;19.096;2023-02-24T15:01:47;4.60;99.90
43185;DHT22;28803;52.308;19.096;2023-02-24T15:07:00;4.60;99.90
43185;DHT22;28803;52.308;19.096;2023-02-24T15:09:40;4.60;99.90
43185;DHT22;28803;52.308;19.096;2023-02-24T15:14:50;4.50;99.90
43185;DHT22;28803;52.308;19.096;2023-02-24T15:17:19;4.60;99.90
43185;DHT22;28803;52.308;19.096;2023-02-24T15:19:48;4.60;99.90
43185;DHT22;28803;52.308;19.096;2023-02-24T15:22:26;4.60;99.90
43185;DHT22;28803;52.308;19.096;2023-02-24T15:27:57;4.60;99.90
43185;DHT22;28803;52.308;19.096;2023-02-24T15:30:39;4.50;99.90
43185;DHT22;28803;52.308;19.096;2023-02-24T15:33:23;4.40;99.90
43185;DHT22;28803;52.308;19.096;2023-02-24T15:35:54;4.40;99.90
43185;DHT22;28803;52.308;19.096;2023-02-24T15:38:23;4.30;99.90
43185;DHT22;28803;52.308;19.096;2023-02-24T15:40:56;4.30;99.90
43185;DHT22;28803;52.308;19.096;2023-02-24T15:46:35;4.20;99.90
43185;DHT22;28803;52.308;19.096;2023-02-24T15:49:04;4.20;99.90
43185;DHT22;28803;52.308;19.096;2023-02-24T15:51:40;4.10;99.90
43185;DHT22;28803;52.308;19.096;2023-02-24T15:56:39;4.00;99.90
43185;DHT22;28803;52.308;19.096;2023-02-24T15:59:07;3.90;99.90
43185;DHT22;28803;52.308;19.096;2023-02-24T16:01:36;3.90;99.90
43185;DHT22;28803;52.308;19.096;2023-02-24T16:04:03;3.80;99.90
43185;DHT22;28803;52.308;19.096;2023-02-24T16:06:31;3.70;99.90
43185;DHT22;28803;52.308;19.096;2023-02-24T16:08:59;3.70;99.90
43185;DHT22;28803;52.308;19.096;2023-02-24T16:11:34;3.60;99.90
43185;DHT22;28803;52.308;19.096;2023-02-24T16:14:03;3.60;99.90
43185;DHT22;28803;52.308;19.096;2023-02-24T16:16:30;3.60;99.90
43185;DHT22;28803;52.308;19.096;2023-02-24T16:18:59;3.60;99.90
43185;DHT22;28803;52.308;19.096;2023-02-24T16:21:26;3.60;99.90
43185;DHT22;28803;52.308;19.096;2023-02-24T16:23:53;3.60;99.90
43185;DHT22;28803;52.308;19.096;2023-02-24T16:26:21;3.60;99.90
43185;DHT22;28803;52.308;19.096;2023-02-24T16:28:55;3.60;99.90
43185;DHT22;28803;52.308;19.096;2023-02-24T16:31:24;3.60;99.90
43185;DHT22;28803;52.308;19.096;2023-02-24T16:33:52;3.60;99.90
43185;DHT22;28803;52.308;19.096;2023-02-24T16:36:23;3.60;99.90
43185;DHT22;28803;52.308;19.096;2023-02-24T16:38:51;3.60;99.90
43185;DHT22;28803;52.308;19.096;2023-02-24T16:41:19;3.60;99.90
43185;DHT22;28803;52.308;19.096;2023-02-24T16:43:46;3.60;99.90
43185;DHT22;28803;52.308;19.096;2023-02-24T16:46:19;3.50;99.90
43185;DHT22;28803;52.308;19.096;2023-02-24T16:48:51;3.50;99.90
43185;DHT22;28803;52.308;19.096;2023-02-24T16:51:20;3.30;99.90
43185;DHT22;28803;52.308;19.096;2023-02-24T16:53:47;3.20;99.90
43185;DHT22;28803;52.308;19.096;2023-02-24T16:56:15;3.10;99.90
43185;DHT22;28803;52.308;19.096;2023-02-24T16:58:42;3.00;99.90
43185;DHT22;28803;52.308;19.096;2023-02-24T17:01:15;2.90;99.90
43185;DHT22;28803;52.308;19.096;2023-02-24T17:03:46;2.70;99.90
43185;DHT22;28803;52.308;19.096;2023-02-24T17:06:14;2.60;99.90
43185;DHT22;28803;52.308;19.096;2023-02-24T17:08:42;2.60;99.90
43185;DHT22;28803;52.308;19.096;2023-02-24T17:11:12;2.60;99.90
43185;DHT22;28803;52.308;19.096;2023-02-24T17:13:40;2.50;99.90
43185;DHT22;28803;52.308;19.096;2023-02-24T17:16:07;2.50;99.90
43185;DHT22;28803;52.308;19.096;2023-02-24T17:18:35;2.40;99.90
43185;DHT22;28803;52.308;19.096;2023-02-24T17:21:02;2.40;99.90
43185;DHT22;28803;52.308;19.096;2023-02-24T17:23:30;2.40;99.90
43185;DHT22;28803;52.308;19.096;2023-02-24T17:26:00;2.30;99.90
43185;DHT22;28803;52.308;19.096;2023-02-24T17:28:27;2.30;99.90
43185;DHT22;28803;52.308;19.096;2023-02-24T17:30:55;2.20;99.90
43185;DHT22;28803;52.308;19.096;2023-02-24T17:33:22;2.10;99.90
43185;DHT22;28803;52.308;19.096;2023-02-24T17:35:50;2.00;99.90
43185;DHT22;28803;52.308;19.096;2023-02-24T17:38:19;2.00;99.90
43185;DHT22;28803;52.308;19.096;2023-02-24T17:40:47;1.90;99.90
43185;DHT22;28803;52.308;19.096;2023-02-24T17:43:14;1.80;99.90
43185;DHT22;28803;52.308;19.096;2023-02-24T17:45:43;1.80;99.90
43185;DHT22;28803;52.308;19.096;2023-02-24T17:48:12;1.80;99.90
43185;DHT22;28803;52.308;19.096;2023-02-24T17:50:41;1.80;99.90
43185;DHT22;28803;52.308;19.096;2023-02-24T17:53:08;1.90;99.90
43185;DHT22;28803;52.308;19.096;2023-02-24T17:55:35;1.90;99.90
43185;DHT22;28803;52.308;19.096;2023-02-24T17:58:02;1.90;99.90
43185;DHT22;28803;52.308;19.096;2023-02-24T18:00:30;1.90;99.90
43185;DHT22;28803;52.308;19.096;2023-02-24T18:02:57;1.90;99.90
43185;DHT22;28803;52.308;19.096;2023-02-24T18:05:25;1.90;99.90
43185;DHT22;28803;52.308;19.096;2023-02-24T18:07:52;1.90;99.90
43185;DHT22;28803;52.308;19.096;2023-02-24T18:10:19;2.00;99.90
43185;DHT22;28803;52.308;19.096;2023-02-24T18:12:46;1.90;99.90
43185;DHT22;28803;52.308;19.096;2023-02-24T18:15:14;1.90;99.90
43185;DHT22;28803;52.308;19.096;2023-02-24T18:17:41;1.90;99.90
43185;DHT22;28803;52.308;19.096;2023-02-24T18:20:09;1.90;99.90
43185;DHT22;28803;52.308;19.096;2023-02-24T18:22:37;1.90;99.90
43185;DHT22;28803;52.308;19.096;2023-02-24T18:25:05;1.90;99.90
43185;DHT22;28803;52.308;19.096;2023-02-24T18:27:33;1.80;99.90
43185;DHT22;28803;52.308;19.096;2023-02-24T18:30:01;1.80;99.90
43185;DHT22;28803;52.308;19.096;2023-02-24T18:32:28;1.70;99.90
43185;DHT22;28803;52.308;19.096;2023-02-24T18:34:56;1.70;99.90
43185;DHT22;28803;52.308;19.096;2023-02-24T18:37:23;1.70;99.90
43185;DHT22;28803;52.308;19.096;2023-02-24T18:39:50;1.70;99.90
43185;DHT22;28803;52.308;19.096;2023-02-24T18:42:19;1.60;99.90
43185;DHT22;28803;52.308;19.096;2023-02-24T18:44:46;1.50;99.90
43185;DHT22;28803;52.308;19.096;2023-02-24T18:47:13;1.50;99.90
43185;DHT22;28803;52.308;19.096;2023-02-24T18:49:40;-0.40;99.90
43185;DHT22;28803;52.308;19.096;2023-02-24T18:52:07;1.50;99.90